Time;durP1;ratioP1;P1;durP2;ratioP2;P2;SDS_P1;SDS_P2;PMS_P1;PMS_P2;Temp;Humidity;BMP_temperature;BMP_pressure;BME280_temperature;BME280_humidity;BME280_pressure;Samples;Min_cycle;Max_cycle;Signal;HPM_P1;HPM_P2
2022/09/24 00:00:51;;;;;;;1.10;0.60;;;;;;;12.71;95.77;100915.00;5047979;28;20033;-66
2022/09/24 00:03:23;;;;;;;2.03;0.60;;;;;;;12.70;96.16;100918.59;5046931;28;20460;-67
2022/09/24 00:05:49;;;;;;;4.35;1.05;;;;;;;12.71;95.84;100925.47;5046931;28;20076;-67
2022/09/24 00:08:16;;;;;;;3.95;0.50;;;;;;;12.74;95.57;100919.94;5049386;28;20442;-67
2022/09/24 00:10:44;;;;;;;3.25;0.50;;;;;;;12.76;95.13;100917.97;5048918;28;20032;-67
2022/09/24 00:13:13;;;;;;;1.73;0.57;;;;;;;12.77;94.76;100916.19;5048270;28;20029;-67
2022/09/24 00:15:42;;;;;;;0.90;0.30;;;;;;;12.80;94.93;100914.09;5049403;28;20028;-67
2022/09/24 00:18:09;;;;;;;0.63;0.28;;;;;;;12.80;94.34;100918.50;5049098;28;20035;-67
2022/09/24 00:20:35;;;;;;;1.55;0.50;;;;;;;12.81;93.78;100920.16;5047822;28;20319;-68
2022/09/24 00:23:01;;;;;;;15.07;1.33;;;;;;;12.78;93.16;100913.44;5047255;28;20236;-68
2022/09/24 00:28:12;;;;;;;1.13;0.30;;;;;;;12.78;93.27;100915.22;5049240;28;20037;-68
2022/09/24 00:30:40;;;;;;;0.98;0.40;;;;;;;12.77;93.18;100914.41;5049225;28;20029;-67
2022/09/24 00:33:05;;;;;;;1.25;0.35;;;;;;;12.75;93.30;100908.53;5047495;28;20040;-68
2022/09/24 00:35:35;;;;;;;1.65;0.50;;;;;;;12.76;93.08;100909.34;5049026;28;20029;-67
2022/09/24 00:38:01;;;;;;;2.20;0.30;;;;;;;12.75;93.44;100910.31;5047662;28;20041;-67
2022/09/24 00:40:29;;;;;;;2.88;0.65;;;;;;;12.72;93.75;100906.19;5047886;28;20116;-67
2022/09/24 00:42:55;;;;;;;2.17;0.50;;;;;;;12.72;93.58;100902.75;5048732;28;20025;-67
2022/09/24 00:45:21;;;;;;;3.67;0.40;;;;;;;12.72;93.55;100900.97;5048583;28;20127;-68
2022/09/24 00:47:47;;;;;;;3.15;0.40;;;;;;;12.70;93.50;100892.44;5048787;28;20021;-67
2022/09/24 00:50:32;;;;;;;1.58;0.47;;;;;;;12.70;93.15;100892.44;5047548;28;20455;-67
2022/09/24 00:52:59;;;;;;;1.88;0.40;;;;;;;12.70;93.50;100887.22;5048729;28;20086;-68
2022/09/24 00:55:25;;;;;;;1.88;0.50;;;;;;;12.69;93.59;100885.59;5046292;28;20141;-67
2022/09/24 00:57:55;;;;;;;1.40;0.35;;;;;;;12.71;93.50;100886.25;5048684;28;20039;-67
2022/09/24 01:00:21;;;;;;;2.10;0.40;;;;;;;12.72;93.42;100889.69;5047937;28;20118;-67
2022/09/24 01:02:51;;;;;;;4.28;0.47;;;;;;;12.73;93.38;100883.50;5048036;28;20536;-68
2022/09/24 01:05:16;;;;;;;2.15;0.40;;;;;;;12.72;93.56;100877.44;5046500;28;20563;-68
2022/09/24 01:07:42;;;;;;;2.47;0.43;;;;;;;12.71;93.66;100883.63;5029454;28;20113;-68
2022/09/24 01:10:08;;;;;;;1.65;0.30;;;;;;;12.71;93.64;100885.44;5048363;28;20025;-67
2022/09/24 01:12:45;;;;;;;1.77;0.50;;;;;;;12.70;93.62;100882.00;5048041;28;20045;-67
2022/09/24 01:15:38;;;;;;;1.45;0.50;;;;;;;12.69;93.77;100875.13;5047190;28;20032;-67
2022/09/24 01:18:16;;;;;;;1.27;0.30;;;;;;;12.70;93.81;100882.00;5048196;28;20041;-68
2022/09/24 01:20:53;;;;;;;3.63;0.52;;;;;;;12.70;93.75;100875.94;5046849;28;20408;-67
2022/09/24 01:23:37;;;;;;;1.08;0.50;;;;;;;12.66;94.14;100864.97;5048187;28;20117;-67
2022/09/24 01:26:09;;;;;;;1.27;0.55;;;;;;;12.67;94.11;100871.84;5048165;28;20105;-67
2022/09/24 01:28:40;;;;;;;1.60;0.50;;;;;;;12.67;94.45;100871.84;5048191;28;20428;-67
2022/09/24 01:31:15;;;;;;;1.00;0.40;;;;;;;12.68;94.10;100873.47;5046938;28;20052;-67
2022/09/24 01:33:43;;;;;;;3.20;0.40;;;;;;;12.66;94.32;100871.97;5041450;28;20051;-67
2022/09/24 01:36:09;;;;;;;1.65;0.50;;;;;;;12.65;94.53;100867.72;5046996;28;20039;-67
2022/09/24 01:38:40;;;;;;;1.52;0.30;;;;;;;12.65;94.69;100868.53;5048023;28;20395;-68
2022/09/24 01:41:09;;;;;;;2.53;0.57;;;;;;;12.65;94.36;100863.31;5048196;28;20028;-68
2022/09/24 01:43:35;;;;;;;3.03;0.40;;;;;;;12.66;94.43;100862.34;5046822;28;20040;-68
2022/09/24 01:46:05;;;;;;;2.65;0.40;;;;;;;12.68;94.16;100860.41;5048199;28;20025;-67
2022/09/24 01:48:33;;;;;;;1.85;0.30;;;;;;;12.67;94.25;100861.38;5046287;28;20672;-68
2022/09/24 01:51:10;;;;;;;3.38;0.30;;;;;;;12.66;94.54;100867.56;5046984;28;20032;-68
2022/09/24 01:53:46;;;;;;;1.88;0.40;;;;;;;12.67;94.88;100869.22;5033098;28;20028;-67
2022/09/24 01:56:40;;;;;;;0.98;0.30;;;;;;;12.63;95.33;100862.63;5046826;28;20025;-67
2022/09/24 01:59:13;;;;;;;1.63;0.50;;;;;;;12.61;95.38;100861.97;5046316;28;20149;-67
2022/09/24 02:01:56;;;;;;;4.10;0.40;;;;;;;12.60;95.70;100855.91;5046813;28;20029;-67
2022/09/24 02:04:26;;;;;;;0.85;0.30;;;;;;;12.62;95.04;100853.97;5027795;28;20030;-67
2022/09/24 02:07:01;;;;;;;6.40;0.60;;;;;;;12.61;95.06;100857.56;5033053;28;20075;-67
2022/09/24 02:09:42;;;;;;;1.85;0.45;;;;;;;12.59;95.18;100851.66;5048123;28;20135;-68
2022/09/24 02:12:16;;;;;;;2.35;0.50;;;;;;;12.61;95.43;100851.50;5047345;28;20045;-67
2022/09/24 02:14:50;;;;;;;2.17;0.50;;;;;;;12.63;95.35;100844.34;5046087;28;20108;-67
2022/09/24 02:17:17;;;;;;;4.97;0.52;;;;;;;12.64;95.61;100838.16;5046679;28;20032;-68
2022/09/24 02:19:45;;;;;;;0.77;0.50;;;;;;;12.65;95.45;100837.19;5047518;28;20025;-67
2022/09/24 02:22:13;;;;;;;0.70;0.40;;;;;;;12.67;95.45;100835.25;5045268;28;20032;-67
2022/09/24 02:24:49;;;;;;;1.55;0.40;;;;;;;12.68;95.67;100831.66;5047911;28;20511;-68
2022/09/24 02:27:15;;;;;;;3.35;0.50;;;;;;;12.72;95.43;100830.38;5046898;28;20029;-68
2022/09/24 02:29:41;;;;;;;1.52;0.40;;;;;;;12.75;95.36;100831.88;5047314;28;20131;-67
2022/09/24 02:32:09;;;;;;;2.08;0.80;;;;;;;12.77;95.13;100829.91;5047429;28;20325;-68
2022/09/24 02:34:40;;;;;;;3.50;0.40;;;;;;;12.78;95.24;100827.13;5047194;28;20514;-67
2022/09/24 02:37:08;;;;;;;0.75;0.30;;;;;;;12.77;95.56;100829.91;5046633;28;20064;-67
2022/09/24 02:39:35;;;;;;;2.45;0.95;;;;;;;12.75;95.49;100826.66;5047358;28;20025;-67
2022/09/24 02:42:02;;;;;;;2.05;0.40;;;;;;;12.76;95.46;100818.63;5227903;22;20175;-85
2022/09/24 02:44:29;;;;;;;3.65;0.35;;;;;;;12.76;95.39;100813.41;5035385;28;20437;-84
2022/09/24 02:46:55;;;;;;;0.85;0.43;;;;;;;12.77;95.33;100809.81;5036725;28;20037;-85
2022/09/24 02:49:21;;;;;;;1.15;0.30;;;;;;;12.78;95.51;100819.31;5034847;28;20029;-84
2022/09/24 02:51:46;;;;;;;2.20;0.32;;;;;;;12.78;95.33;100815.88;5043636;28;20346;-86
2022/09/24 02:54:12;;;;;;;2.25;0.50;;;;;;;12.77;95.38;100811.59;5049677;28;20085;-87
2022/09/24 02:56:38;;;;;;;3.90;0.50;;;;;;;12.78;95.40;100811.47;5048663;28;20021;-85
2022/09/24 02:59:03;;;;;;;1.10;0.52;;;;;;;12.81;95.47;100816.38;5042181;28;20379;-88
2022/09/24 03:01:30;;;;;;;1.00;0.40;;;;;;;12.83;95.55;100809.22;5043072;28;20031;-87
2022/09/24 03:03:56;;;;;;;1.55;0.60;;;;;;;12.84;95.46;100807.41;5043140;28;20029;-85
2022/09/24 03:06:23;;;;;;;1.08;0.45;;;;;;;12.83;95.40;100805.78;5031417;28;20041;-84
2022/09/24 03:08:50;;;;;;;1.88;0.30;;;;;;;12.83;95.86;100803.97;5031271;28;20064;-84
2022/09/24 03:11:16;;;;;;;2.85;0.52;;;;;;;12.82;96.16;100796.28;5031320;28;20029;-85
2022/09/24 03:13:41;;;;;;;2.58;0.57;;;;;;;12.86;96.51;100792.41;5031368;28;20160;-86
2022/09/24 03:16:07;;;;;;;1.70;0.43;;;;;;;12.84;96.27;100789.94;5031249;28;20029;-85
2022/09/24 03:18:33;;;;;;;2.38;0.35;;;;;;;12.87;96.08;100799.28;5029339;28;20045;-85
2022/09/24 03:21:01;;;;;;;2.88;0.68;;;;;;;12.84;95.93;100795.16;5030765;28;20075;-84
2022/09/24 03:23:27;;;;;;;2.25;0.43;;;;;;;12.84;96.27;100789.94;5029391;28;20044;-85
2022/09/24 03:25:53;;;;;;;2.88;0.40;;;;;;;12.84;96.15;100789.94;5029369;28;20336;-86
2022/09/24 03:28:18;;;;;;;1.20;0.25;;;;;;;12.84;95.88;100779.47;5029646;28;20504;-84
2022/09/24 03:31:00;;;;;;;1.35;0.40;;;;;;;12.84;95.54;100782.09;5022858;28;20028;-83
2022/09/24 03:33:36;;;;;;;1.17;0.20;;;;;;;12.84;95.42;100781.28;5010796;28;20068;-85
2022/09/24 03:36:15;;;;;;;0.82;0.30;;;;;;;12.87;95.07;100780.97;5016145;28;20037;-85
2022/09/24 03:38:42;;;;;;;1.80;0.50;;;;;;;12.88;95.09;100777.38;5029174;28;20143;-84
2022/09/24 03:41:09;;;;;;;1.30;0.35;;;;;;;12.90;95.41;100778.06;5029391;28;20028;-85
2022/09/24 03:43:35;;;;;;;1.13;0.40;;;;;;;12.89;95.37;100777.22;5026354;28;20623;-86
2022/09/24 03:46:01;;;;;;;0.77;0.30;;;;;;;12.88;95.47;100769.53;5028451;28;20029;-86
2022/09/24 03:48:29;;;;;;;1.35;0.30;;;;;;;12.88;95.75;100769.53;5030375;28;20055;-84
2022/09/24 03:50:54;;;;;;;2.97;0.50;;;;;;;12.83;96.11;100762.16;5027863;28;20511;-85
2022/09/24 03:53:20;;;;;;;1.33;0.40;;;;;;;12.81;96.42;100769.31;5026746;28;20025;-84
2022/09/24 03:55:51;;;;;;;2.55;0.32;;;;;;;12.79;96.60;100771.25;5028679;28;20025;-85
2022/09/24 03:58:16;;;;;;;1.58;0.65;;;;;;;12.76;96.48;100774.19;5027851;28;20112;-86
2022/09/24 04:00:42;;;;;;;0.93;0.45;;;;;;;12.73;96.25;100774.50;5028213;28;20047;-85
2022/09/24 04:03:08;;;;;;;2.15;0.40;;;;;;;12.73;96.18;100781.53;5026723;28;20372;-84
2022/09/24 04:05:34;;;;;;;1.00;0.50;;;;;;;12.73;95.81;100782.34;5029513;28;20088;-85
2022/09/24 04:08:01;;;;;;;1.50;0.43;;;;;;;12.72;95.84;100790.34;5029966;28;20022;-86
2022/09/24 04:10:27;;;;;;;1.40;0.30;;;;;;;12.67;96.06;100777.72;5028344;28;20096;-84
2022/09/24 04:12:54;;;;;;;3.47;0.30;;;;;;;12.66;96.12;100788.34;5024921;28;20029;-84
2022/09/24 04:15:20;;;;;;;1.85;0.30;;;;;;;12.65;96.44;100795.34;5025535;28;20036;-86
2022/09/24 04:17:58;;;;;;;1.35;0.30;;;;;;;12.58;96.90;100797.75;5028154;28;20124;-86
2022/09/24 04:20:26;;;;;;;3.13;0.60;;;;;;;12.55;97.09;100805.88;5027464;28;20111;-85
2022/09/24 04:22:54;;;;;;;4.80;0.50;;;;;;;12.54;97.42;100804.22;5028780;28;20071;-84
2022/09/24 04:25:21;;;;;;;0.98;0.68;;;;;;;12.53;97.51;100804.38;5028916;28;20048;-83
2022/09/24 04:27:55;;;;;;;2.47;0.80;;;;;;;12.54;97.66;100812.06;5028709;28;20021;-84
2022/09/24 04:30:22;;;;;;;3.75;0.50;;;;;;;12.56;97.65;100812.75;5010172;28;20037;-84
2022/09/24 04:32:50;;;;;;;3.67;0.60;;;;;;;12.59;97.66;100806.41;5026396;28;20021;-86
2022/09/24 04:35:15;;;;;;;2.28;0.60;;;;;;;12.59;97.47;100807.22;5027892;28;20042;-86
2022/09/24 04:37:41;;;;;;;5.85;1.42;;;;;;;12.61;97.53;100809.69;5027671;28;20052;-85
2022/09/24 04:40:09;;;;;;;1.88;0.68;;;;;;;12.62;97.29;100808.72;5025114;28;20029;-86
2022/09/24 04:42:34;;;;;;;2.03;1.08;;;;;;;12.64;97.40;100796.31;5027631;28;20500;-83
2022/09/24 04:44:59;;;;;;;2.60;0.57;;;;;;;12.66;97.38;100788.34;5025241;28;20080;-82
2022/09/24 04:47:25;;;;;;;1.73;0.50;;;;;;;12.66;97.23;100786.53;5023711;28;20065;-84
2022/09/24 04:49:51;;;;;;;2.78;0.30;;;;;;;12.70;97.06;100787.88;5029127;28;20381;-86
2022/09/24 04:52:17;;;;;;;1.80;0.75;;;;;;;12.73;97.11;100794.59;5027977;28;20112;-86
2022/09/24 04:54:45;;;;;;;1.67;0.90;;;;;;;12.75;96.60;100790.88;5027823;28;20065;-86
2022/09/24 04:57:14;;;;;;;3.92;1.17;;;;;;;12.77;96.63;100794.13;5024876;28;20112;-85
2022/09/24 04:59:39;;;;;;;4.90;2.00;;;;;;;12.77;97.05;100788.91;5026844;28;20025;-85
2022/09/24 05:02:06;;;;;;;4.55;2.30;;;;;;;12.77;97.17;100791.50;5025212;28;20403;-86
2022/09/24 05:04:31;;;;;;;7.80;3.42;;;;;;;12.78;97.03;100790.53;5025698;28;20029;-85
2022/09/24 05:06:57;;;;;;;6.78;3.33;;;;;;;12.80;96.70;100791.22;5026800;28;20033;-85
2022/09/24 05:09:22;;;;;;;6.53;2.80;;;;;;;12.82;96.77;100786.66;5028029;28;20031;-85
2022/09/24 05:11:48;;;;;;;2.67;2.03;;;;;;;12.82;97.02;100789.25;5027405;28;20033;-86
2022/09/24 05:14:13;;;;;;;5.00;0.90;;;;;;;12.86;96.96;100787.19;5027365;28;20030;-85
2022/09/24 05:16:39;;;;;;;1.42;0.70;;;;;;;12.84;97.07;100792.56;5024800;28;20036;-85
2022/09/24 05:19:04;;;;;;;2.08;0.80;;;;;;;12.88;97.17;100790.47;5021268;28;20037;-85
2022/09/24 05:21:30;;;;;;;4.88;1.23;;;;;;;12.90;96.90;100794.56;5026902;28;20032;-85
2022/09/24 05:23:56;;;;;;;3.75;1.00;;;;;;;12.91;97.18;100790.16;5027039;28;20025;-85
2022/09/24 05:29:05;;;;;;;7.07;1.83;;;;;;;12.94;97.32;100801.13;5026514;28;20044;-85
2022/09/24 05:31:30;;;;;;;5.30;1.15;;;;;;;12.94;96.82;100793.28;5025644;28;20033;-86
2022/09/24 05:33:56;;;;;;;3.78;0.85;;;;;;;12.93;96.97;100794.25;5025354;28;20022;-85
2022/09/24 05:36:22;;;;;;;3.72;0.90;;;;;;;12.93;97.09;100788.22;5028415;28;20492;-86
2022/09/24 05:38:47;;;;;;;1.17;0.60;;;;;;;12.93;97.18;100796.88;5025593;28;20021;-85
2022/09/24 05:41:13;;;;;;;3.88;1.20;;;;;;;12.95;97.10;100794.13;5025643;28;20412;-84
2022/09/24 05:43:39;;;;;;;1.73;0.65;;;;;;;12.98;97.13;100790.38;5028590;28;20326;-85
2022/09/24 05:46:06;;;;;;;4.22;1.25;;;;;;;12.99;97.54;100792.03;5025305;28;20022;-85
2022/09/24 05:48:31;;;;;;;2.25;1.20;;;;;;;13.02;98.50;100794.34;5040539;28;20047;-85
2022/09/24 05:51:00;;;;;;;1.55;1.05;;;;;;;13.04;98.81;100795.00;5054124;28;20018;-86
2022/09/24 05:53:25;;;;;;;3.55;1.17;;;;;;;13.10;99.28;100800.44;5053010;28;20026;-85
2022/09/24 05:55:51;;;;;;;4.70;1.00;;;;;;;13.15;99.41;100798.19;5042434;28;20044;-85
2022/09/24 05:58:17;;;;;;;4.05;0.82;;;;;;;13.15;98.48;100792.16;5042535;28;20044;-85
2022/09/24 06:00:44;;;;;;;7.13;1.23;;;;;;;13.19;98.39;100803.97;5033862;28;20567;-86
2022/09/24 06:03:14;;;;;;;2.17;0.70;;;;;;;13.23;97.78;100802.69;5027992;28;20017;-86
2022/09/24 06:05:48;;;;;;;2.03;0.68;;;;;;;13.25;97.70;100809.41;5026812;28;20045;-86
2022/09/24 06:08:14;;;;;;;3.15;1.05;;;;;;;13.29;97.71;100807.28;5026924;28;20511;-85
2022/09/24 06:10:45;;;;;;;3.47;0.70;;;;;;;13.31;97.47;100810.59;5028713;28;20025;-85
2022/09/24 06:13:13;;;;;;;2.72;0.70;;;;;;;13.34;97.35;100818.13;5026648;28;20369;-85
2022/09/24 06:15:44;;;;;;;0.80;0.50;;;;;;;13.36;97.08;100816.19;5027486;28;20022;-85
2022/09/24 06:18:12;;;;;;;3.83;0.60;;;;;;;13.35;96.78;100817.16;5028395;28;20057;-85
2022/09/24 06:20:39;;;;;;;4.95;0.77;;;;;;;13.36;96.53;100826.66;5026653;28;20057;-86
2022/09/24 06:23:05;;;;;;;3.28;0.75;;;;;;;13.37;96.34;100823.06;5030922;28;20025;-85
2022/09/24 06:25:31;;;;;;;7.18;0.68;;;;;;;13.38;96.44;100818.63;5029337;28;20021;-86
2022/09/24 06:28:01;;;;;;;3.00;0.95;;;;;;;13.38;96.55;100819.47;5028700;28;20095;-85
2022/09/24 06:30:31;;;;;;;2.88;0.60;;;;;;;13.40;96.25;100816.69;5024886;28;20033;-86
2022/09/24 06:33:04;;;;;;;2.85;0.50;;;;;;;13.44;96.10;100824.09;5028839;28;20029;-86
2022/09/24 06:35:29;;;;;;;1.58;0.60;;;;;;;13.48;96.05;100814.94;5027979;28;20448;-86
2022/09/24 06:37:56;;;;;;;2.70;0.60;;;;;;;13.55;95.75;100821.22;5030338;28;20029;-85
2022/09/24 06:40:23;;;;;;;2.00;0.50;;;;;;;13.64;95.39;100818.66;5030929;28;20471;-85
2022/09/24 06:42:51;;;;;;;1.58;0.70;;;;;;;13.68;95.66;100823.41;5029991;28;20046;-85
2022/09/24 06:45:17;;;;;;;2.50;0.80;;;;;;;13.72;95.96;100819.47;5025891;28;20512;-84
2022/09/24 06:47:42;;;;;;;2.92;0.50;;;;;;;13.77;96.06;100824.25;5030104;28;20132;-86
2022/09/24 06:50:08;;;;;;;8.95;0.82;;;;;;;13.80;95.59;100826.56;5025272;28;20527;-86
2022/09/24 06:52:33;;;;;;;6.35;0.70;;;;;;;13.86;95.61;100828.56;5035056;28;20022;-87
2022/09/24 06:54:59;;;;;;;2.97;1.30;;;;;;;13.90;95.04;100824.66;5027444;28;20105;-87
2022/09/24 06:57:24;;;;;;;4.72;0.80;;;;;;;13.94;94.85;100823.34;5026331;28;20393;-85
2022/09/24 06:59:50;;;;;;;1.70;0.68;;;;;;;14.00;94.57;100825.34;5032114;28;20476;-86
2022/09/24 07:02:16;;;;;;;2.95;0.60;;;;;;;14.06;94.48;100839.63;5029784;28;20029;-86
2022/09/24 07:04:41;;;;;;;1.13;0.50;;;;;;;14.09;93.79;100834.88;5046287;28;20118;-86
2022/09/24 07:09:51;;;;;;;2.00;0.50;;;;;;;14.10;92.37;100847.00;5040395;28;20106;-85
2022/09/24 07:12:16;;;;;;;2.20;0.40;;;;;;;14.12;91.20;100845.06;5026992;28;20037;-85
2022/09/24 07:14:42;;;;;;;2.35;0.60;;;;;;;14.15;90.90;100843.91;5028653;28;20108;-85
2022/09/24 07:17:07;;;;;;;3.30;0.50;;;;;;;14.19;90.64;100846.03;5027056;28;20033;-85
2022/09/24 07:19:32;;;;;;;1.13;0.38;;;;;;;14.24;89.95;100849.00;5027241;28;20461;-85
2022/09/24 07:21:58;;;;;;;2.22;0.75;;;;;;;14.27;90.09;100843.44;5029176;28;20368;-86
2022/09/24 07:24:23;;;;;;;2.35;0.75;;;;;;;14.32;89.60;100855.25;5029344;28;20458;-84
2022/09/24 07:26:49;;;;;;;1.35;0.35;;;;;;;14.36;90.03;100856.56;5030950;28;20041;-86
2022/09/24 07:29:15;;;;;;;1.00;0.35;;;;;;;14.38;90.04;100855.44;5026703;28;20091;-87
2022/09/24 07:31:40;;;;;;;3.45;0.65;;;;;;;14.38;91.48;100862.47;5026746;28;20444;-85
2022/09/24 07:34:07;;;;;;;1.75;0.50;;;;;;;14.35;92.24;100865.41;5023120;28;20433;-85
2022/09/24 07:36:33;;;;;;;3.58;0.60;;;;;;;14.33;92.86;100867.38;5026995;28;20087;-87
2022/09/24 07:39:00;;;;;;;3.63;0.88;;;;;;;14.31;93.04;100864.09;5027778;28;20473;-85
2022/09/24 07:41:26;;;;;;;1.42;0.50;;;;;;;14.29;93.10;100874.72;5029249;28;20381;-86
2022/09/24 07:43:54;;;;;;;2.55;0.60;;;;;;;14.25;93.31;100879.47;5024199;28;20150;-87
2022/09/24 07:46:20;;;;;;;2.65;0.60;;;;;;;14.22;93.61;100871.94;5031793;28;20029;-86
2022/09/24 07:48:47;;;;;;;3.08;0.60;;;;;;;14.20;93.79;100865.19;5034523;28;20132;-87
2022/09/24 07:51:13;;;;;;;6.88;0.88;;;;;;;14.21;93.84;100874.69;5042134;28;20029;-84
2022/09/24 07:53:38;;;;;;;3.28;0.90;;;;;;;14.22;93.55;100871.94;5031557;28;20033;-85
2022/09/24 07:56:04;;;;;;;2.75;0.95;;;;;;;14.27;94.02;100864.41;5029993;28;20030;-87
2022/09/24 07:58:29;;;;;;;2.35;0.77;;;;;;;14.29;93.94;100867.69;5030610;28;20034;-87
2022/09/24 08:01:00;;;;;;;8.13;1.17;;;;;;;14.34;93.40;100864.59;5030959;28;20236;-88
2022/09/24 08:03:25;;;;;;;1.73;0.65;;;;;;;14.37;93.27;100861.66;5039410;28;20040;-86
2022/09/24 08:06:00;;;;;;;4.40;0.98;;;;;;;14.39;93.34;100861.50;5034924;28;20031;-85
2022/09/24 08:08:26;;;;;;;3.22;0.90;;;;;;;14.42;93.41;100866.47;5027425;28;20058;-87
2022/09/24 08:10:52;;;;;;;3.65;0.80;;;;;;;14.46;93.40;100857.28;5030487;28;20052;-84
2022/09/24 08:13:18;;;;;;;4.53;0.90;;;;;;;14.53;93.45;100859.13;5038049;28;20040;-85
2022/09/24 08:15:46;;;;;;;6.90;0.90;;;;;;;14.58;93.46;100851.59;5039427;28;20025;-85
2022/09/24 08:18:11;;;;;;;4.57;1.00;;;;;;;14.65;93.22;100850.97;5026442;28;20030;-86
2022/09/24 08:20:37;;;;;;;7.05;0.95;;;;;;;14.71;93.25;100856.34;5023536;28;20021;-87
2022/09/24 08:23:06;;;;;;;6.50;1.35;;;;;;;14.77;92.56;100849.63;5026407;28;20145;-85
2022/09/24 08:25:32;;;;;;;4.25;1.00;;;;;;;14.82;92.87;100848.16;5027184;28;20059;-86
2022/09/24 08:28:05;;;;;;;2.72;1.35;;;;;;;14.86;92.65;100844.25;5027460;28;20085;-86
2022/09/24 08:30:32;;;;;;;5.75;1.10;;;;;;;14.92;92.65;100845.41;5033779;28;20032;-88
2022/09/24 08:32:58;;;;;;;12.25;0.95;;;;;;;14.95;93.06;100842.44;5035488;28;20029;-87
2022/09/24 08:35:24;;;;;;;3.25;1.05;;;;;;;14.97;92.64;100845.72;5028219;28;20519;-88
2022/09/24 08:37:49;;;;;;;7.20;1.10;;;;;;;14.98;93.00;100841.31;5026704;28;20029;-86
2022/09/24 08:40:21;;;;;;;4.10;0.82;;;;;;;15.01;92.93;100846.22;5029013;28;20462;-85
2022/09/24 08:42:58;;;;;;;7.18;1.08;;;;;;;15.01;93.80;100846.22;5024558;28;20033;-88
2022/09/24 08:48:35;;;;;;;3.22;1.58;;;;;;;15.01;93.94;100840.97;5025464;28;20326;-85
2022/09/24 08:51:07;;;;;;;3.53;1.10;;;;;;;15.07;94.59;100837.69;5016898;28;20030;-88
2022/09/24 08:54:03;;;;;;;4.60;1.45;;;;;;;15.13;94.34;100839.63;5026266;28;20167;-85
2022/09/24 08:56:33;;;;;;;4.00;1.38;;;;;;;15.33;93.55;100829.63;5022496;28;20433;-87
2022/09/24 08:59:04;;;;;;;4.93;1.92;;;;;;;15.58;92.70;100836.50;5020959;28;20037;-88
2022/09/24 09:02:04;;;;;;;7.45;1.40;;;;;;;15.76;90.44;100838.91;5022676;28;20454;-85
2022/09/24 09:04:48;;;;;;;4.35;1.50;;;;;;;15.86;90.66;100845.59;5025403;28;20053;-86
2022/09/24 09:07:20;;;;;;;4.15;2.20;;;;;;;15.91;89.59;100840.66;5029894;28;20042;-89
2022/09/24 09:10:27;;;;;;;2.20;1.35;;;;;;;15.92;89.11;100844.09;5025971;28;20026;-85
2022/09/24 09:13:03;;;;;;;3.30;1.23;;;;;;;15.91;89.30;100845.91;5029298;28;20045;-90
2022/09/24 09:15:34;;;;;;;1.83;0.77;;;;;;;15.93;89.11;100843.13;5028461;28;20049;-85
2022/09/24 09:18:25;;;;;;;3.00;0.95;;;;;;;15.94;89.50;100839.50;5028216;28;20132;-89
2022/09/24 09:20:51;;;;;;;3.40;0.93;;;;;;;16.04;88.69;100847.19;5022809;28;20037;-85
2022/09/24 09:23:21;;;;;;;3.38;0.70;;;;;;;16.09;88.56;100850.09;5028290;28;20064;-88
2022/09/24 09:25:54;;;;;;;1.75;0.80;;;;;;;16.15;87.10;100847.59;5025770;28;20033;-85
2022/09/24 09:28:20;;;;;;;5.10;0.82;;;;;;;16.27;87.30;100842.78;5027147;28;20383;-88
2022/09/24 09:30:57;;;;;;;2.50;0.98;;;;;;;16.32;87.08;100835.22;5022374;28;20100;-88
2022/09/24 09:33:58;;;;;;;5.13;0.93;;;;;;;16.32;85.63;100837.03;5027376;28;20457;-85
2022/09/24 09:36:52;;;;;;;3.35;0.80;;;;;;;16.35;85.20;100832.25;5009750;28;20371;-86
2022/09/24 09:39:36;;;;;;;1.73;0.50;;;;;;;16.36;83.74;100823.34;5015397;28;20076;-87
2022/09/24 09:42:14;;;;;;;4.00;0.63;;;;;;;16.40;85.56;100832.53;5023360;28;20585;-88
2022/09/24 09:44:41;;;;;;;9.25;1.85;;;;;;;16.38;86.44;100836.34;5029493;28;20488;-87
2022/09/24 09:48:02;;;;;;;2.85;0.70;;;;;;;16.38;83.53;100836.34;5026682;28;20087;-88
2022/09/24 09:50:58;;;;;;;4.32;1.23;;;;;;;16.47;83.46;100830.84;4988791;28;20413;-86
2022/09/24 09:53:25;;;;;;;;;;;;;;;16.51;83.18;100828.69;4989929;28;20034;-86
2022/09/24 09:55:59;;;;;;;1.67;0.40;;;;;;;16.51;83.63;100826.06;4991204;28;20265;-90
2022/09/24 09:58:24;;;;;;;1.35;0.52;;;;;;;16.56;84.75;100826.34;5007393;28;20042;-87
2022/09/24 10:00:51;;;;;;;2.00;0.98;;;;;;;16.59;83.77;100824.19;5007923;28;20052;-88
2022/09/24 10:03:27;;;;;;;3.55;0.63;;;;;;;16.63;82.84;100824.66;5005395;28;20034;-85
2022/09/24 10:05:59;;;;;;;3.55;0.70;;;;;;;16.59;84.27;100826.81;5009217;28;20108;-84
2022/09/24 10:08:25;;;;;;;1.50;0.45;;;;;;;16.63;83.80;100827.28;5009103;28;20609;-87
2022/09/24 10:10:58;;;;;;;1.50;1.00;;;;;;;16.65;82.72;100827.13;4991228;28;20034;-88
2022/09/24 10:13:24;;;;;;;2.05;1.10;;;;;;;16.65;83.15;100820.06;5000828;28;20044;-88
2022/09/24 10:16:02;;;;;;;3.78;1.30;;;;;;;16.67;82.47;100812.81;4990376;28;20026;-87
2022/09/24 10:18:28;;;;;;;4.38;1.10;;;;;;;16.72;81.89;100807.03;4984292;28;20104;-88
2022/09/24 10:20:55;;;;;;;1.73;1.00;;;;;;;16.74;81.73;100803.22;4992412;28;20485;-88
2022/09/24 10:23:29;;;;;;;5.95;1.75;;;;;;;16.75;81.04;100810.13;5009690;28;20026;-88
2022/09/24 10:25:59;;;;;;;1.92;0.80;;;;;;;16.75;80.96;100810.13;5031717;28;20040;-87
2022/09/24 10:31:15;;;;;;;2.95;1.00;;;;;;;16.78;82.22;100801.88;5031082;28;20559;-88
2022/09/24 10:33:44;;;;;;;3.40;0.90;;;;;;;16.83;81.92;100804.00;5049003;28;20077;-88
2022/09/24 10:36:21;;;;;;;2.60;1.17;;;;;;;16.84;82.35;100803.81;5054539;28;20060;-85
2022/09/24 10:38:47;;;;;;;5.57;1.00;;;;;;;16.87;82.58;100808.72;5043789;28;20441;-84
2022/09/24 10:41:30;;;;;;;3.75;0.50;;;;;;;16.79;82.22;100807.97;5044349;28;20030;-84
2022/09/24 10:44:01;;;;;;;4.10;0.60;;;;;;;16.71;82.96;100808.03;5040724;28;20041;-85
2022/09/24 10:46:35;;;;;;;2.75;0.43;;;;;;;16.64;83.51;100807.91;5038983;28;20491;-87
2022/09/24 10:49:12;;;;;;;7.18;1.13;;;;;;;16.63;82.59;100805.41;5032720;28;20034;-85
2022/09/24 10:51:43;;;;;;;3.13;0.70;;;;;;;16.67;83.08;100802.28;5028591;28;20037;-88
2022/09/24 10:54:55;;;;;;;2.08;0.93;;;;;;;16.67;83.34;100799.66;5026660;28;20083;-88
2022/09/24 10:57:33;;;;;;;3.45;0.93;;;;;;;16.60;84.08;100802.16;5028496;28;20041;-87
2022/09/24 11:00:17;;;;;;;3.15;1.20;;;;;;;16.56;85.61;100807.94;5032458;28;20211;-87
2022/09/24 11:03:01;;;;;;;5.45;1.35;;;;;;;16.54;86.65;100804.69;5030608;28;20033;-84
2022/09/24 11:06:08;;;;;;;4.03;1.20;;;;;;;16.58;85.86;100795.41;5027686;28;20172;-85
2022/09/24 11:09:04;;;;;;;4.07;1.13;;;;;;;16.62;86.20;100793.25;4976407;28;20145;-85
2022/09/24 11:11:38;;;;;;;4.73;0.70;;;;;;;16.66;85.25;100795.41;4996346;28;20077;-87
2022/09/24 11:14:13;;;;;;;4.40;0.70;;;;;;;16.68;85.27;100796.03;4985779;28;20057;-85
2022/09/24 11:17:09;;;;;;;5.40;0.70;;;;;;;16.67;85.00;100788.31;4994176;28;20071;-86
2022/09/24 11:20:05;;;;;;;2.75;0.63;;;;;;;16.63;85.32;100792.25;4985187;28;20302;-87
2022/09/24 11:22:52;;;;;;;3.55;0.60;;;;;;;16.56;86.19;100781.63;4980230;28;20038;-85
2022/09/24 11:25:49;;;;;;;2.97;0.65;;;;;;;16.49;86.13;100772.81;4981922;28;20041;-85
2022/09/24 11:28:42;;;;;;;3.10;0.55;;;;;;;16.40;86.59;100771.25;4984570;28;20081;-86
2022/09/24 11:31:22;;;;;;;3.75;0.90;;;;;;;16.31;87.29;100762.59;4987860;28;20109;-87
2022/09/24 11:34:35;;;;;;;2.50;1.00;;;;;;;16.22;87.75;100766.25;4967316;28;20050;-87
2022/09/24 11:37:10;;;;;;;2.88;1.45;;;;;;;16.13;88.60;100769.91;4913706;29;20513;-84
2022/09/24 11:39:58;;;;;;;5.70;1.40;;;;;;;16.06;89.49;100767.19;4945244;28;20202;-87
2022/09/24 11:42:30;;;;;;;4.60;1.40;;;;;;;16.02;90.76;100779.03;4933572;29;20057;-85
2022/09/24 11:45:15;;;;;;;1.88;1.30;;;;;;;15.91;92.08;100771.53;4967339;28;20050;-84
2022/09/24 11:48:03;;;;;;;5.38;1.80;;;;;;;15.74;94.66;100767.31;4964620;28;20129;-85
2022/09/24 11:51:05;;;;;;;2.65;2.03;;;;;;;15.55;96.32;100774.59;4964868;28;20173;-85
2022/09/24 11:53:41;;;;;;;3.95;1.55;;;;;;;15.47;96.23;100772.00;4960813;28;20046;-85
2022/09/24 11:56:24;;;;;;;;;;;;;;;15.36;99.66;100767.09;4964475;28;20047;-84
2022/09/24 11:59:12;;;;;;;2.95;1.73;;;;;;;15.34;98.63;100774.31;4964150;28;19922;-85